sensor_id;sensor_type;location;lat;lon;timestamp;P1;durP1;ratioP1;P2;durP2;ratioP2
72301;SDS011;60235;52.234;5.186;2022-10-10T00:00:03;10.40;;;4.05;;
72301;SDS011;60235;52.234;5.186;2022-10-10T00:02:29;8.75;;;3.90;;
72301;SDS011;60235;52.234;5.186;2022-10-10T00:04:55;9.35;;;3.90;;
72301;SDS011;60235;52.234;5.186;2022-10-10T00:07:21;10.57;;;4.35;;
72301;SDS011;60235;52.234;5.186;2022-10-10T00:09:47;12.30;;;4.20;;
72301;SDS011;60235;52.234;5.186;2022-10-10T00:12:13;9.43;;;4.00;;
72301;SDS011;60235;52.234;5.186;2022-10-10T00:14:39;11.85;;;4.70;;
72301;SDS011;60235;52.234;5.186;2022-10-10T00:17:05;11.90;;;4.18;;
72301;SDS011;60235;52.234;5.186;2022-10-10T00:19:31;13.18;;;4.93;;
72301;SDS011;60235;52.234;5.186;2022-10-10T00:21:57;8.48;;;4.55;;
72301;SDS011;60235;52.234;5.186;2022-10-10T00:24:23;10.35;;;3.75;;
72301;SDS011;60235;52.234;5.186;2022-10-10T00:26:49;10.07;;;4.35;;
72301;SDS011;60235;52.234;5.186;2022-10-10T00:29:15;10.35;;;4.38;;
72301;SDS011;60235;52.234;5.186;2022-10-10T00:31:41;9.20;;;4.45;;
72301;SDS011;60235;52.234;5.186;2022-10-10T00:34:07;11.48;;;4.63;;
72301;SDS011;60235;52.234;5.186;2022-10-10T00:36:33;10.15;;;4.03;;
72301;SDS011;60235;52.234;5.186;2022-10-10T00:38:59;9.00;;;4.32;;
72301;SDS011;60235;52.234;5.186;2022-10-10T00:41:25;9.63;;;4.68;;
72301;SDS011;60235;52.234;5.186;2022-10-10T00:46:28;10.80;;;4.50;;
72301;SDS011;60235;52.234;5.186;2022-10-10T00:48:54;12.63;;;5.00;;
72301;SDS011;60235;52.234;5.186;2022-10-10T00:51:20;10.77;;;4.07;;
72301;SDS011;60235;52.234;5.186;2022-10-10T00:53:47;9.65;;;4.20;;
72301;SDS011;60235;52.234;5.186;2022-10-10T00:56:14;11.23;;;4.13;;
72301;SDS011;60235;52.234;5.186;2022-10-10T00:58:44;12.13;;;4.57;;
72301;SDS011;60235;52.234;5.186;2022-10-10T01:01:11;8.85;;;4.32;;
72301;SDS011;60235;52.234;5.186;2022-10-10T01:03:37;8.63;;;4.03;;
72301;SDS011;60235;52.234;5.186;2022-10-10T01:06:03;10.38;;;3.97;;
72301;SDS011;60235;52.234;5.186;2022-10-10T01:08:29;11.57;;;4.40;;
72301;SDS011;60235;52.234;5.186;2022-10-10T01:11:11;10.70;;;4.32;;
72301;SDS011;60235;52.234;5.186;2022-10-10T01:14:04;10.35;;;4.13;;
72301;SDS011;60235;52.234;5.186;2022-10-10T01:19:14;10.43;;;4.70;;
72301;SDS011;60235;52.234;5.186;2022-10-10T01:22:10;8.95;;;4.10;;
72301;SDS011;60235;52.234;5.186;2022-10-10T01:24:35;9.15;;;4.30;;
72301;SDS011;60235;52.234;5.186;2022-10-10T01:29:30;10.13;;;3.88;;
72301;SDS011;60235;52.234;5.186;2022-10-10T01:32:00;10.35;;;4.40;;
72301;SDS011;60235;52.234;5.186;2022-10-10T01:34:52;12.52;;;4.78;;
72301;SDS011;60235;52.234;5.186;2022-10-10T01:37:21;10.35;;;4.45;;
72301;SDS011;60235;52.234;5.186;2022-10-10T01:40:02;9.48;;;4.22;;
72301;SDS011;60235;52.234;5.186;2022-10-10T01:42:37;12.15;;;4.82;;
72301;SDS011;60235;52.234;5.186;2022-10-10T01:45:04;11.40;;;4.57;;
72301;SDS011;60235;52.234;5.186;2022-10-10T01:47:30;9.25;;;4.40;;
72301;SDS011;60235;52.234;5.186;2022-10-10T01:49:57;11.82;;;4.40;;
72301;SDS011;60235;52.234;5.186;2022-10-10T01:52:32;9.95;;;4.20;;
72301;SDS011;60235;52.234;5.186;2022-10-10T02:00:30;13.07;;;4.60;;
72301;SDS011;60235;52.234;5.186;2022-10-10T02:03:06;11.02;;;4.82;;
72301;SDS011;60235;52.234;5.186;2022-10-10T02:05:41;12.55;;;4.47;;
72301;SDS011;60235;52.234;5.186;2022-10-10T02:08:10;10.48;;;4.25;;
72301;SDS011;60235;52.234;5.186;2022-10-10T02:10:43;9.68;;;4.15;;
72301;SDS011;60235;52.234;5.186;2022-10-10T02:13:11;13.68;;;4.68;;
72301;SDS011;60235;52.234;5.186;2022-10-10T02:15:39;11.10;;;5.15;;
72301;SDS011;60235;52.234;5.186;2022-10-10T02:18:06;10.50;;;4.90;;
72301;SDS011;60235;52.234;5.186;2022-10-10T02:20:33;10.10;;;4.40;;
72301;SDS011;60235;52.234;5.186;2022-10-10T02:22:59;9.85;;;5.20;;
72301;SDS011;60235;52.234;5.186;2022-10-10T02:25:26;14.52;;;4.88;;
72301;SDS011;60235;52.234;5.186;2022-10-10T02:28:07;9.57;;;4.38;;
72301;SDS011;60235;52.234;5.186;2022-10-10T02:30:35;11.70;;;4.90;;
72301;SDS011;60235;52.234;5.186;2022-10-10T02:33:02;9.75;;;4.38;;
72301;SDS011;60235;52.234;5.186;2022-10-10T02:35:31;11.95;;;5.25;;
72301;SDS011;60235;52.234;5.186;2022-10-10T02:37:59;10.85;;;4.55;;
72301;SDS011;60235;52.234;5.186;2022-10-10T02:40:27;11.65;;;5.13;;
72301;SDS011;60235;52.234;5.186;2022-10-10T02:42:54;10.43;;;4.63;;
72301;SDS011;60235;52.234;5.186;2022-10-10T02:45:22;10.57;;;4.47;;
72301;SDS011;60235;52.234;5.186;2022-10-10T02:47:49;11.15;;;4.50;;
72301;SDS011;60235;52.234;5.186;2022-10-10T02:50:16;12.25;;;5.03;;
72301;SDS011;60235;52.234;5.186;2022-10-10T02:52:42;10.90;;;4.20;;
72301;SDS011;60235;52.234;5.186;2022-10-10T02:55:08;8.57;;;4.32;;
72301;SDS011;60235;52.234;5.186;2022-10-10T02:57:34;13.15;;;4.82;;
72301;SDS011;60235;52.234;5.186;2022-10-10T03:00:00;14.95;;;5.07;;
72301;SDS011;60235;52.234;5.186;2022-10-10T03:02:26;14.52;;;5.18;;
72301;SDS011;60235;52.234;5.186;2022-10-10T03:04:52;13.43;;;4.40;;
72301;SDS011;60235;52.234;5.186;2022-10-10T03:07:18;12.88;;;4.70;;
72301;SDS011;60235;52.234;5.186;2022-10-10T03:09:44;14.20;;;4.80;;
72301;SDS011;60235;52.234;5.186;2022-10-10T03:12:10;10.35;;;4.40;;
72301;SDS011;60235;52.234;5.186;2022-10-10T03:14:36;10.82;;;5.00;;
72301;SDS011;60235;52.234;5.186;2022-10-10T03:17:02;10.65;;;4.68;;
72301;SDS011;60235;52.234;5.186;2022-10-10T03:19:28;9.45;;;4.60;;
72301;SDS011;60235;52.234;5.186;2022-10-10T03:21:54;12.95;;;4.40;;
72301;SDS011;60235;52.234;5.186;2022-10-10T03:24:20;13.00;;;4.85;;
72301;SDS011;60235;52.234;5.186;2022-10-10T03:26:46;13.40;;;5.25;;
72301;SDS011;60235;52.234;5.186;2022-10-10T03:29:12;12.85;;;4.82;;
72301;SDS011;60235;52.234;5.186;2022-10-10T03:31:38;10.45;;;4.70;;
72301;SDS011;60235;52.234;5.186;2022-10-10T03:34:04;13.30;;;4.72;;
72301;SDS011;60235;52.234;5.186;2022-10-10T03:36:30;12.50;;;5.28;;
72301;SDS011;60235;52.234;5.186;2022-10-10T03:38:56;11.50;;;5.10;;
72301;SDS011;60235;52.234;5.186;2022-10-10T03:41:23;11.35;;;4.93;;
72301;SDS011;60235;52.234;5.186;2022-10-10T03:43:49;11.90;;;4.43;;
72301;SDS011;60235;52.234;5.186;2022-10-10T03:46:15;13.90;;;4.85;;
72301;SDS011;60235;52.234;5.186;2022-10-10T03:48:41;14.55;;;4.93;;
72301;SDS011;60235;52.234;5.186;2022-10-10T03:51:07;10.52;;;4.80;;
72301;SDS011;60235;52.234;5.186;2022-10-10T03:53:33;10.18;;;4.93;;
72301;SDS011;60235;52.234;5.186;2022-10-10T03:55:59;13.13;;;5.47;;
72301;SDS011;60235;52.234;5.186;2022-10-10T03:58:25;15.85;;;5.82;;
72301;SDS011;60235;52.234;5.186;2022-10-10T04:00:52;15.45;;;5.22;;
72301;SDS011;60235;52.234;5.186;2022-10-10T04:03:18;11.93;;;5.15;;
72301;SDS011;60235;52.234;5.186;2022-10-10T04:05:44;11.35;;;4.70;;
72301;SDS011;60235;52.234;5.186;2022-10-10T04:08:10;12.80;;;5.43;;
72301;SDS011;60235;52.234;5.186;2022-10-10T04:10:37;14.05;;;4.85;;
72301;SDS011;60235;52.234;5.186;2022-10-10T04:13:03;12.75;;;5.47;;
72301;SDS011;60235;52.234;5.186;2022-10-10T04:15:28;10.95;;;4.90;;
72301;SDS011;60235;52.234;5.186;2022-10-10T04:17:55;12.80;;;5.32;;
72301;SDS011;60235;52.234;5.186;2022-10-10T04:20:21;11.38;;;4.90;;
72301;SDS011;60235;52.234;5.186;2022-10-10T04:22:47;13.55;;;5.15;;
72301;SDS011;60235;52.234;5.186;2022-10-10T04:25:13;12.65;;;5.35;;
72301;SDS011;60235;52.234;5.186;2022-10-10T04:27:40;10.68;;;5.20;;
72301;SDS011;60235;52.234;5.186;2022-10-10T04:30:07;15.90;;;5.43;;
72301;SDS011;60235;52.234;5.186;2022-10-10T04:32:33;12.93;;;4.75;;
72301;SDS011;60235;52.234;5.186;2022-10-10T04:34:59;14.05;;;5.30;;
72301;SDS011;60235;52.234;5.186;2022-10-10T04:37:25;12.68;;;5.13;;
72301;SDS011;60235;52.234;5.186;2022-10-10T04:39:51;14.13;;;5.13;;
72301;SDS011;60235;52.234;5.186;2022-10-10T04:42:17;13.98;;;5.75;;
72301;SDS011;60235;52.234;5.186;2022-10-10T04:44:43;13.82;;;5.35;;
72301;SDS011;60235;52.234;5.186;2022-10-10T04:47:09;18.08;;;5.78;;
72301;SDS011;60235;52.234;5.186;2022-10-10T04:49:37;12.90;;;5.03;;
72301;SDS011;60235;52.234;5.186;2022-10-10T04:52:03;12.15;;;5.50;;
72301;SDS011;60235;52.234;5.186;2022-10-10T04:54:29;11.88;;;5.40;;
72301;SDS011;60235;52.234;5.186;2022-10-10T04:56:55;13.27;;;5.45;;
72301;SDS011;60235;52.234;5.186;2022-10-10T04:59:21;12.75;;;5.25;;
72301;SDS011;60235;52.234;5.186;2022-10-10T05:01:47;13.35;;;4.90;;
72301;SDS011;60235;52.234;5.186;2022-10-10T05:04:13;12.90;;;5.18;;
72301;SDS011;60235;52.234;5.186;2022-10-10T05:06:39;11.20;;;4.90;;
72301;SDS011;60235;52.234;5.186;2022-10-10T05:09:05;15.45;;;5.47;;
72301;SDS011;60235;52.234;5.186;2022-10-10T05:11:31;11.73;;;5.40;;
72301;SDS011;60235;52.234;5.186;2022-10-10T05:13:57;11.93;;;5.60;;
72301;SDS011;60235;52.234;5.186;2022-10-10T05:16:23;15.73;;;5.80;;
72301;SDS011;60235;52.234;5.186;2022-10-10T05:18:49;14.95;;;5.38;;
72301;SDS011;60235;52.234;5.186;2022-10-10T05:21:15;15.65;;;5.38;;
72301;SDS011;60235;52.234;5.186;2022-10-10T05:23:41;17.30;;;5.10;;
72301;SDS011;60235;52.234;5.186;2022-10-10T05:26:08;13.30;;;5.78;;
72301;SDS011;60235;52.234;5.186;2022-10-10T05:28:34;11.45;;;5.35;;
72301;SDS011;60235;52.234;5.186;2022-10-10T05:31:01;11.00;;;5.05;;
72301;SDS011;60235;52.234;5.186;2022-10-10T05:33:27;16.27;;;5.88;;
72301;SDS011;60235;52.234;5.186;2022-10-10T05:36:00;13.48;;;5.40;;
72301;SDS011;60235;52.234;5.186;2022-10-10T05:38:25;11.73;;;5.13;;
72301;SDS011;60235;52.234;5.186;2022-10-10T05:40:53;12.82;;;5.25;;
72301;SDS011;60235;52.234;5.186;2022-10-10T05:43:19;18.25;;;5.22;;
72301;SDS011;60235;52.234;5.186;2022-10-10T05:45:45;12.45;;;5.57;;
72301;SDS011;60235;52.234;5.186;2022-10-10T05:48:11;13.05;;;5.45;;
72301;SDS011;60235;52.234;5.186;2022-10-10T05:50:37;15.68;;;5.68;;
72301;SDS011;60235;52.234;5.186;2022-10-10T05:53:04;13.88;;;5.68;;
72301;SDS011;60235;52.234;5.186;2022-10-10T05:55:31;12.60;;;5.53;;
72301;SDS011;60235;52.234;5.186;2022-10-10T05:57:57;13.93;;;6.22;;
72301;SDS011;60235;52.234;5.186;2022-10-10T06:00:23;14.75;;;6.00;;
72301;SDS011;60235;52.234;5.186;2022-10-10T06:02:49;14.35;;;5.57;;
72301;SDS011;60235;52.234;5.186;2022-10-10T06:05:15;14.65;;;6.45;;
72301;SDS011;60235;52.234;5.186;2022-10-10T06:07:41;12.98;;;5.68;;
72301;SDS011;60235;52.234;5.186;2022-10-10T06:10:08;14.43;;;5.47;;
72301;SDS011;60235;52.234;5.186;2022-10-10T06:12:34;16.15;;;6.38;;
72301;SDS011;60235;52.234;5.186;2022-10-10T06:15:00;12.82;;;5.68;;
72301;SDS011;60235;52.234;5.186;2022-10-10T06:17:26;14.10;;;5.60;;
72301;SDS011;60235;52.234;5.186;2022-10-10T06:19:52;23.95;;;6.28;;
72301;SDS011;60235;52.234;5.186;2022-10-10T06:22:18;12.50;;;5.88;;
72301;SDS011;60235;52.234;5.186;2022-10-10T06:24:44;13.98;;;5.50;;
72301;SDS011;60235;52.234;5.186;2022-10-10T06:27:10;15.20;;;6.18;;
72301;SDS011;60235;52.234;5.186;2022-10-10T06:29:36;14.05;;;6.10;;
72301;SDS011;60235;52.234;5.186;2022-10-10T06:32:02;12.75;;;5.55;;
72301;SDS011;60235;52.234;5.186;2022-10-10T06:34:28;11.68;;;5.57;;
72301;SDS011;60235;52.234;5.186;2022-10-10T06:36:54;15.13;;;6.65;;
72301;SDS011;60235;52.234;5.186;2022-10-10T06:39:20;14.52;;;6.10;;
72301;SDS011;60235;52.234;5.186;2022-10-10T06:41:47;12.75;;;5.60;;
72301;SDS011;60235;52.234;5.186;2022-10-10T06:44:15;12.68;;;5.80;;
72301;SDS011;60235;52.234;5.186;2022-10-10T06:46:41;14.55;;;5.82;;
72301;SDS011;60235;52.234;5.186;2022-10-10T06:49:07;14.00;;;5.95;;
72301;SDS011;60235;52.234;5.186;2022-10-10T06:51:33;13.48;;;6.40;;
72301;SDS011;60235;52.234;5.186;2022-10-10T06:53:59;14.20;;;5.78;;
72301;SDS011;60235;52.234;5.186;2022-10-10T06:56:25;15.65;;;5.13;;
72301;SDS011;60235;52.234;5.186;2022-10-10T06:58:51;17.23;;;6.55;;
72301;SDS011;60235;52.234;5.186;2022-10-10T07:01:18;14.05;;;5.68;;
72301;SDS011;60235;52.234;5.186;2022-10-10T07:03:44;14.27;;;5.93;;
72301;SDS011;60235;52.234;5.186;2022-10-10T07:06:11;14.07;;;4.97;;
72301;SDS011;60235;52.234;5.186;2022-10-10T07:08:37;15.60;;;5.45;;
72301;SDS011;60235;52.234;5.186;2022-10-10T07:11:04;12.02;;;5.35;;
72301;SDS011;60235;52.234;5.186;2022-10-10T07:13:31;15.27;;;6.05;;
72301;SDS011;60235;52.234;5.186;2022-10-10T07:15:57;14.35;;;5.88;;
72301;SDS011;60235;52.234;5.186;2022-10-10T07:18:23;15.90;;;5.53;;
72301;SDS011;60235;52.234;5.186;2022-10-10T07:20:49;13.38;;;6.05;;
72301;SDS011;60235;52.234;5.186;2022-10-10T07:23:16;14.45;;;5.88;;
72301;SDS011;60235;52.234;5.186;2022-10-10T07:25:42;11.23;;;4.93;;
72301;SDS011;60235;52.234;5.186;2022-10-10T07:28:08;13.88;;;5.57;;
72301;SDS011;60235;52.234;5.186;2022-10-10T07:30:41;16.15;;;5.63;;
72301;SDS011;60235;52.234;5.186;2022-10-10T07:33:07;12.40;;;5.63;;
72301;SDS011;60235;52.234;5.186;2022-10-10T07:35:33;13.82;;;5.90;;
72301;SDS011;60235;52.234;5.186;2022-10-10T07:37:59;17.33;;;5.75;;
72301;SDS011;60235;52.234;5.186;2022-10-10T07:40:25;11.90;;;6.05;;
72301;SDS011;60235;52.234;5.186;2022-10-10T07:42:51;10.18;;;4.75;;
72301;SDS011;60235;52.234;5.186;2022-10-10T07:45:17;12.02;;;5.55;;
72301;SDS011;60235;52.234;5.186;2022-10-10T07:47:43;13.63;;;5.63;;
72301;SDS011;60235;52.234;5.186;2022-10-10T07:50:10;15.40;;;5.38;;
72301;SDS011;60235;52.234;5.186;2022-10-10T07:52:36;15.25;;;5.97;;
72301;SDS011;60235;52.234;5.186;2022-10-10T07:55:03;11.13;;;5.00;;
72301;SDS011;60235;52.234;5.186;2022-10-10T07:57:29;17.77;;;6.22;;
72301;SDS011;60235;52.234;5.186;2022-10-10T07:59:59;13.52;;;5.50;;
72301;SDS011;60235;52.234;5.186;2022-10-10T08:02:25;10.85;;;4.90;;
72301;SDS011;60235;52.234;5.186;2022-10-10T08:04:51;14.77;;;5.40;;
72301;SDS011;60235;52.234;5.186;2022-10-10T08:07:17;12.40;;;5.18;;
72301;SDS011;60235;52.234;5.186;2022-10-10T08:09:44;11.48;;;5.30;;
72301;SDS011;60235;52.234;5.186;2022-10-10T08:12:10;14.27;;;5.35;;
72301;SDS011;60235;52.234;5.186;2022-10-10T08:14:36;11.38;;;5.20;;
72301;SDS011;60235;52.234;5.186;2022-10-10T08:17:02;12.52;;;4.82;;
72301;SDS011;60235;52.234;5.186;2022-10-10T08:19:27;13.27;;;5.00;;
72301;SDS011;60235;52.234;5.186;2022-10-10T08:21:53;11.50;;;4.53;;
72301;SDS011;60235;52.234;5.186;2022-10-10T08:24:20;11.57;;;5.47;;
72301;SDS011;60235;52.234;5.186;2022-10-10T08:26:46;12.32;;;5.00;;
72301;SDS011;60235;52.234;5.186;2022-10-10T08:29:12;11.63;;;4.97;;
72301;SDS011;60235;52.234;5.186;2022-10-10T08:31:38;13.40;;;5.00;;
72301;SDS011;60235;52.234;5.186;2022-10-10T08:34:04;15.73;;;6.10;;
72301;SDS011;60235;52.234;5.186;2022-10-10T08:36:30;10.20;;;4.72;;
72301;SDS011;60235;52.234;5.186;2022-10-10T08:38:56;11.80;;;5.20;;
72301;SDS011;60235;52.234;5.186;2022-10-10T08:41:27;14.45;;;5.05;;
72301;SDS011;60235;52.234;5.186;2022-10-10T08:43:57;16.10;;;5.28;;
72301;SDS011;60235;52.234;5.186;2022-10-10T08:48:51;13.70;;;5.20;;
72301;SDS011;60235;52.234;5.186;2022-10-10T08:51:24;18.40;;;5.35;;
72301;SDS011;60235;52.234;5.186;2022-10-10T08:53:51;13.18;;;5.28;;
72301;SDS011;60235;52.234;5.186;2022-10-10T08:56:22;11.65;;;5.07;;
72301;SDS011;60235;52.234;5.186;2022-10-10T08:58:55;13.88;;;5.05;;
72301;SDS011;60235;52.234;5.186;2022-10-10T09:01:22;12.50;;;5.38;;
72301;SDS011;60235;52.234;5.186;2022-10-10T09:03:52;11.95;;;4.90;;
72301;SDS011;60235;52.234;5.186;2022-10-10T09:06:28;13.27;;;5.30;;
72301;SDS011;60235;52.234;5.186;2022-10-10T09:09:15;12.63;;;5.40;;
72301;SDS011;60235;52.234;5.186;2022-10-10T09:14:34;16.13;;;5.70;;
72301;SDS011;60235;52.234;5.186;2022-10-10T09:21:58;12.98;;;4.65;;
72301;SDS011;60235;52.234;5.186;2022-10-10T09:24:26;16.17;;;5.65;;
72301;SDS011;60235;52.234;5.186;2022-10-10T09:27:00;15.55;;;6.07;;
72301;SDS011;60235;52.234;5.186;2022-10-10T09:34:58;15.25;;;5.53;;
72301;SDS011;60235;52.234;5.186;2022-10-10T09:37:31;15.63;;;5.93;;
72301;SDS011;60235;52.234;5.186;2022-10-10T09:42:28;14.73;;;6.03;;
72301;SDS011;60235;52.234;5.186;2022-10-10T09:44:56;16.13;;;5.78;;
72301;SDS011;60235;52.234;5.186;2022-10-10T09:47:22;11.82;;;5.95;;
72301;SDS011;60235;52.234;5.186;2022-10-10T09:49:48;16.65;;;5.50;;
72301;SDS011;60235;52.234;5.186;2022-10-10T09:52:24;13.63;;;5.75;;
72301;SDS011;60235;52.234;5.186;2022-10-10T09:54:54;16.67;;;6.13;;
72301;SDS011;60235;52.234;5.186;2022-10-10T09:57:21;16.42;;;7.00;;
72301;SDS011;60235;52.234;5.186;2022-10-10T09:59:49;14.93;;;6.30;;
72301;SDS011;60235;52.234;5.186;2022-10-10T10:02:21;15.18;;;6.00;;
72301;SDS011;60235;52.234;5.186;2022-10-10T10:04:48;15.68;;;5.70;;
72301;SDS011;60235;52.234;5.186;2022-10-10T10:09:56;16.05;;;5.43;;
72301;SDS011;60235;52.234;5.186;2022-10-10T10:12:26;11.30;;;5.25;;
72301;SDS011;60235;52.234;5.186;2022-10-10T10:14:57;13.25;;;5.85;;
72301;SDS011;60235;52.234;5.186;2022-10-10T10:17:23;15.68;;;5.60;;
72301;SDS011;60235;52.234;5.186;2022-10-10T10:19:49;12.32;;;4.90;;
72301;SDS011;60235;52.234;5.186;2022-10-10T10:24:53;16.60;;;6.22;;
72301;SDS011;60235;52.234;5.186;2022-10-10T10:27:21;13.77;;;5.55;;
72301;SDS011;60235;52.234;5.186;2022-10-10T10:29:49;15.63;;;6.00;;
72301;SDS011;60235;52.234;5.186;2022-10-10T10:35:02;12.80;;;6.57;;
72301;SDS011;60235;52.234;5.186;2022-10-10T10:55:34;16.50;;;6.53;;
72301;SDS011;60235;52.234;5.186;2022-10-10T11:00:32;22.17;;;7.25;;
72301;SDS011;60235;52.234;5.186;2022-10-10T11:10:57;12.93;;;5.45;;
72301;SDS011;60235;52.234;5.186;2022-10-10T11:13:31;16.33;;;5.57;;
72301;SDS011;60235;52.234;5.186;2022-10-10T11:21:31;17.63;;;5.45;;
72301;SDS011;60235;52.234;5.186;2022-10-10T11:24:01;15.85;;;5.32;;
72301;SDS011;60235;52.234;5.186;2022-10-10T11:26:30;20.63;;;6.80;;
72301;SDS011;60235;52.234;5.186;2022-10-10T11:31:31;15.32;;;5.68;;
72301;SDS011;60235;52.234;5.186;2022-10-10T11:34:01;14.25;;;5.18;;
72301;SDS011;60235;52.234;5.186;2022-10-10T11:36:28;15.82;;;5.65;;
72301;SDS011;60235;52.234;5.186;2022-10-10T11:39:02;15.43;;;5.50;;
72301;SDS011;60235;52.234;5.186;2022-10-10T11:41:33;13.40;;;5.45;;
72301;SDS011;60235;52.234;5.186;2022-10-10T11:44:01;16.75;;;6.03;;
72301;SDS011;60235;52.234;5.186;2022-10-10T11:49:23;16.27;;;6.40;;
72301;SDS011;60235;52.234;5.186;2022-10-10T11:54:23;12.98;;;6.10;;
72301;SDS011;60235;52.234;5.186;2022-10-10T11:56:52;14.15;;;6.57;;
72301;SDS011;60235;52.234;5.186;2022-10-10T11:59:29;20.00;;;6.10;;
72301;SDS011;60235;52.234;5.186;2022-10-10T12:01:58;12.02;;;5.75;;
72301;SDS011;60235;52.234;5.186;2022-10-10T12:04:32;19.23;;;6.03;;
72301;SDS011;60235;52.234;5.186;2022-10-10T12:07:12;15.27;;;5.82;;
72301;SDS011;60235;52.234;5.186;2022-10-10T12:10:01;14.38;;;5.80;;
72301;SDS011;60235;52.234;5.186;2022-10-10T12:12:26;12.90;;;5.57;;
72301;SDS011;60235;52.234;5.186;2022-10-10T12:14:53;16.05;;;6.15;;
72301;SDS011;60235;52.234;5.186;2022-10-10T12:17:24;13.93;;;6.35;;
72301;SDS011;60235;52.234;5.186;2022-10-10T12:19:50;22.60;;;6.70;;
72301;SDS011;60235;52.234;5.186;2022-10-10T12:22:20;14.55;;;5.75;;
72301;SDS011;60235;52.234;5.186;2022-10-10T12:27:42;16.77;;;6.30;;
72301;SDS011;60235;52.234;5.186;2022-10-10T12:30:11;18.48;;;5.50;;
72301;SDS011;60235;52.234;5.186;2022-10-10T12:32:43;13.25;;;5.25;;
72301;SDS011;60235;52.234;5.186;2022-10-10T12:38:26;14.43;;;5.25;;
72301;SDS011;60235;52.234;5.186;2022-10-10T12:43:50;12.40;;;5.07;;
72301;SDS011;60235;52.234;5.186;2022-10-10T12:46:21;14.70;;;4.93;;
72301;SDS011;60235;52.234;5.186;2022-10-10T12:49:48;15.43;;;4.90;;
72301;SDS011;60235;52.234;5.186;2022-10-10T12:51:43;15.75;;;5.38;;
72301;SDS011;60235;52.234;5.186;2022-10-10T12:54:23;13.32;;;4.25;;
72301;SDS011;60235;52.234;5.186;2022-10-10T12:56:50;16.75;;;5.00;;
72301;SDS011;60235;52.234;5.186;2022-10-10T12:59:26;11.43;;;4.10;;
72301;SDS011;60235;52.234;5.186;2022-10-10T13:01:56;10.57;;;3.15;;
72301;SDS011;60235;52.234;5.186;2022-10-10T13:04:23;9.98;;;3.67;;
72301;SDS011;60235;52.234;5.186;2022-10-10T13:06:51;6.75;;;2.35;;
72301;SDS011;60235;52.234;5.186;2022-10-10T13:09:19;8.88;;;2.08;;
72301;SDS011;60235;52.234;5.186;2022-10-10T13:11:50;7.88;;;2.30;;
72301;SDS011;60235;52.234;5.186;2022-10-10T13:14:16;8.35;;;1.70;;
72301;SDS011;60235;52.234;5.186;2022-10-10T13:16:42;6.78;;;2.08;;
72301;SDS011;60235;52.234;5.186;2022-10-10T13:19:15;5.05;;;1.10;;
72301;SDS011;60235;52.234;5.186;2022-10-10T13:21:42;6.35;;;1.23;;
72301;SDS011;60235;52.234;5.186;2022-10-10T13:24:10;4.85;;;1.23;;
72301;SDS011;60235;52.234;5.186;2022-10-10T13:26:39;3.40;;;0.80;;
72301;SDS011;60235;52.234;5.186;2022-10-10T13:31:53;6.10;;;0.90;;
72301;SDS011;60235;52.234;5.186;2022-10-10T13:34:24;2.67;;;0.90;;
72301;SDS011;60235;52.234;5.186;2022-10-10T13:36:52;5.95;;;1.00;;
72301;SDS011;60235;52.234;5.186;2022-10-10T13:39:19;6.35;;;0.90;;
72301;SDS011;60235;52.234;5.186;2022-10-10T13:41:45;5.53;;;0.80;;
72301;SDS011;60235;52.234;5.186;2022-10-10T13:44:12;6.35;;;0.82;;
72301;SDS011;60235;52.234;5.186;2022-10-10T13:46:38;4.85;;;1.15;;
72301;SDS011;60235;52.234;5.186;2022-10-10T13:49:11;4.97;;;0.85;;
72301;SDS011;60235;52.234;5.186;2022-10-10T13:51:41;6.00;;;1.40;;
72301;SDS011;60235;52.234;5.186;2022-10-10T13:56:53;4.45;;;0.80;;
72301;SDS011;60235;52.234;5.186;2022-10-10T13:59:19;6.18;;;1.13;;
72301;SDS011;60235;52.234;5.186;2022-10-10T14:01:47;6.00;;;1.00;;
72301;SDS011;60235;52.234;5.186;2022-10-10T14:11:47;12.68;;;1.42;;
72301;SDS011;60235;52.234;5.186;2022-10-10T14:14:15;13.95;;;1.88;;
72301;SDS011;60235;52.234;5.186;2022-10-10T14:16:42;5.72;;;1.13;;
72301;SDS011;60235;52.234;5.186;2022-10-10T14:19:12;11.55;;;1.38;;
72301;SDS011;60235;52.234;5.186;2022-10-10T14:21:41;8.77;;;1.45;;
72301;SDS011;60235;52.234;5.186;2022-10-10T14:24:07;13.38;;;1.58;;
72301;SDS011;60235;52.234;5.186;2022-10-10T14:26:33;12.75;;;1.90;;
72301;SDS011;60235;52.234;5.186;2022-10-10T14:29:00;11.38;;;1.85;;
72301;SDS011;60235;52.234;5.186;2022-10-10T14:31:25;10.75;;;1.60;;
72301;SDS011;60235;52.234;5.186;2022-10-10T14:33:52;13.73;;;1.63;;
72301;SDS011;60235;52.234;5.186;2022-10-10T14:36:19;18.90;;;2.88;;
72301;SDS011;60235;52.234;5.186;2022-10-10T14:38:45;9.50;;;2.08;;
72301;SDS011;60235;52.234;5.186;2022-10-10T14:41:11;13.57;;;2.05;;
72301;SDS011;60235;52.234;5.186;2022-10-10T14:43:37;13.27;;;1.85;;
72301;SDS011;60235;52.234;5.186;2022-10-10T14:46:03;11.63;;;2.33;;
72301;SDS011;60235;52.234;5.186;2022-10-10T14:48:30;11.48;;;2.05;;
72301;SDS011;60235;52.234;5.186;2022-10-10T14:50:56;18.63;;;2.42;;
72301;SDS011;60235;52.234;5.186;2022-10-10T14:53:22;13.45;;;1.88;;
72301;SDS011;60235;52.234;5.186;2022-10-10T14:55:48;9.73;;;1.90;;
72301;SDS011;60235;52.234;5.186;2022-10-10T14:58:15;14.30;;;1.90;;
72301;SDS011;60235;52.234;5.186;2022-10-10T15:00:42;10.65;;;1.80;;
72301;SDS011;60235;52.234;5.186;2022-10-10T15:03:08;12.57;;;1.90;;
72301;SDS011;60235;52.234;5.186;2022-10-10T15:05:34;14.35;;;1.90;;
72301;SDS011;60235;52.234;5.186;2022-10-10T15:08:00;13.48;;;1.67;;
72301;SDS011;60235;52.234;5.186;2022-10-10T15:10:26;17.50;;;2.30;;
72301;SDS011;60235;52.234;5.186;2022-10-10T15:12:52;10.57;;;1.85;;
72301;SDS011;60235;52.234;5.186;2022-10-10T15:15:18;13.13;;;1.83;;
72301;SDS011;60235;52.234;5.186;2022-10-10T15:17:44;16.80;;;1.85;;
72301;SDS011;60235;52.234;5.186;2022-10-10T15:20:10;12.65;;;2.08;;
72301;SDS011;60235;52.234;5.186;2022-10-10T15:22:37;14.55;;;2.20;;
72301;SDS011;60235;52.234;5.186;2022-10-10T15:25:04;19.80;;;2.25;;
72301;SDS011;60235;52.234;5.186;2022-10-10T15:27:30;13.45;;;2.15;;
72301;SDS011;60235;52.234;5.186;2022-10-10T15:29:56;11.93;;;1.63;;
72301;SDS011;60235;52.234;5.186;2022-10-10T15:32:23;14.30;;;1.77;;
72301;SDS011;60235;52.234;5.186;2022-10-10T15:34:49;10.88;;;1.63;;
72301;SDS011;60235;52.234;5.186;2022-10-10T15:37:16;15.23;;;1.80;;
72301;SDS011;60235;52.234;5.186;2022-10-10T15:39:42;11.55;;;1.30;;
72301;SDS011;60235;52.234;5.186;2022-10-10T15:42:09;10.30;;;1.73;;
72301;SDS011;60235;52.234;5.186;2022-10-10T15:44:36;15.00;;;1.80;;
72301;SDS011;60235;52.234;5.186;2022-10-10T15:47:02;13.98;;;1.67;;
72301;SDS011;60235;52.234;5.186;2022-10-10T15:49:28;11.68;;;1.40;;
72301;SDS011;60235;52.234;5.186;2022-10-10T15:51:54;14.07;;;1.63;;
72301;SDS011;60235;52.234;5.186;2022-10-10T15:54:20;7.80;;;1.20;;
72301;SDS011;60235;52.234;5.186;2022-10-10T15:56:46;9.63;;;1.40;;
72301;SDS011;60235;52.234;5.186;2022-10-10T15:59:12;13.88;;;1.50;;
72301;SDS011;60235;52.234;5.186;2022-10-10T16:01:38;10.20;;;1.27;;
72301;SDS011;60235;52.234;5.186;2022-10-10T16:04:04;11.52;;;1.60;;
72301;SDS011;60235;52.234;5.186;2022-10-10T16:06:30;9.82;;;1.20;;
72301;SDS011;60235;52.234;5.186;2022-10-10T16:08:57;14.98;;;1.90;;
72301;SDS011;60235;52.234;5.186;2022-10-10T16:11:23;9.98;;;1.50;;
72301;SDS011;60235;52.234;5.186;2022-10-10T16:13:50;13.05;;;1.50;;
72301;SDS011;60235;52.234;5.186;2022-10-10T16:16:17;16.20;;;1.83;;
72301;SDS011;60235;52.234;5.186;2022-10-10T16:18:43;11.38;;;2.22;;
72301;SDS011;60235;52.234;5.186;2022-10-10T16:21:13;13.25;;;2.38;;